sensor_id;sensor_type;location;lat;lon;timestamp;temperature;humidity
47961;DHT22;33721;48.852;9.936;2022-12-18T00:01:20;-10.30;99.90
47961;DHT22;33721;48.852;9.936;2022-12-18T00:03:46;-10.20;99.90
47961;DHT22;33721;48.852;9.936;2022-12-18T00:06:12;-10.10;99.90
47961;DHT22;33721;48.852;9.936;2022-12-18T00:08:39;-10.10;99.90
47961;DHT22;33721;48.852;9.936;2022-12-18T00:11:11;-10.30;99.90
47961;DHT22;33721;48.852;9.936;2022-12-18T00:13:37;-10.30;99.90
47961;DHT22;33721;48.852;9.936;2022-12-18T00:16:05;-10.20;99.90
47961;DHT22;33721;48.852;9.936;2022-12-18T00:18:32;-10.20;99.90
47961;DHT22;33721;48.852;9.936;2022-12-18T00:21:06;-10.10;99.90
47961;DHT22;33721;48.852;9.936;2022-12-18T00:23:34;-9.90;99.90
47961;DHT22;33721;48.852;9.936;2022-12-18T00:26:05;-9.80;99.90
47961;DHT22;33721;48.852;9.936;2022-12-18T00:28:31;-9.80;99.90
47961;DHT22;33721;48.852;9.936;2022-12-18T00:31:05;-9.50;99.90
47961;DHT22;33721;48.852;9.936;2022-12-18T00:33:31;-9.20;99.90
47961;DHT22;33721;48.852;9.936;2022-12-18T00:36:11;-9.50;99.90
47961;DHT22;33721;48.852;9.936;2022-12-18T00:38:37;-9.80;99.90
47961;DHT22;33721;48.852;9.936;2022-12-18T00:41:04;-9.60;99.90
47961;DHT22;33721;48.852;9.936;2022-12-18T00:43:30;-9.60;99.90
47961;DHT22;33721;48.852;9.936;2022-12-18T00:45:55;-10.10;99.90
47961;DHT22;33721;48.852;9.936;2022-12-18T00:48:22;-10.20;99.90
47961;DHT22;33721;48.852;9.936;2022-12-18T00:50:49;-9.90;99.90
47961;DHT22;33721;48.852;9.936;2022-12-18T00:53:15;-9.70;99.90
47961;DHT22;33721;48.852;9.936;2022-12-18T00:55:41;-9.50;99.90
47961;DHT22;33721;48.852;9.936;2022-12-18T00:58:08;-9.20;99.90
47961;DHT22;33721;48.852;9.936;2022-12-18T01:00:34;-9.10;99.90
47961;DHT22;33721;48.852;9.936;2022-12-18T01:03:00;-8.90;99.90
47961;DHT22;33721;48.852;9.936;2022-12-18T01:05:25;-8.70;99.90
47961;DHT22;33721;48.852;9.936;2022-12-18T01:07:51;-8.50;99.90
47961;DHT22;33721;48.852;9.936;2022-12-18T01:10:17;-8.40;99.90
47961;DHT22;33721;48.852;9.936;2022-12-18T01:12:43;-8.30;99.90
47961;DHT22;33721;48.852;9.936;2022-12-18T01:15:10;-8.20;99.90
47961;DHT22;33721;48.852;9.936;2022-12-18T01:17:36;-8.10;99.90
47961;DHT22;33721;48.852;9.936;2022-12-18T01:20:01;-8.10;99.90
47961;DHT22;33721;48.852;9.936;2022-12-18T01:22:28;-8.00;99.90
47961;DHT22;33721;48.852;9.936;2022-12-18T01:24:53;-8.00;99.90
47961;DHT22;33721;48.852;9.936;2022-12-18T01:27:19;-8.00;99.90
47961;DHT22;33721;48.852;9.936;2022-12-18T01:29:44;-8.00;99.90
47961;DHT22;33721;48.852;9.936;2022-12-18T01:32:10;-7.90;99.90
47961;DHT22;33721;48.852;9.936;2022-12-18T01:34:37;-7.90;99.90
47961;DHT22;33721;48.852;9.936;2022-12-18T01:37:06;-7.80;99.90
47961;DHT22;33721;48.852;9.936;2022-12-18T01:39:32;-7.80;99.90
47961;DHT22;33721;48.852;9.936;2022-12-18T01:41:59;-7.70;99.90
47961;DHT22;33721;48.852;9.936;2022-12-18T01:49:45;-7.70;99.90
47961;DHT22;33721;48.852;9.936;2022-12-18T01:52:11;-7.70;99.90
47961;DHT22;33721;48.852;9.936;2022-12-18T01:54:37;-7.80;99.90
47961;DHT22;33721;48.852;9.936;2022-12-18T01:57:03;-7.90;99.90
47961;DHT22;33721;48.852;9.936;2022-12-18T01:59:31;-8.00;99.90
47961;DHT22;33721;48.852;9.936;2022-12-18T02:01:58;-8.10;99.90
47961;DHT22;33721;48.852;9.936;2022-12-18T02:04:26;-8.10;99.90
47961;DHT22;33721;48.852;9.936;2022-12-18T02:07:05;-8.10;99.90
47961;DHT22;33721;48.852;9.936;2022-12-18T02:09:46;-8.20;99.90
47961;DHT22;33721;48.852;9.936;2022-12-18T02:12:26;-8.20;99.90
47961;DHT22;33721;48.852;9.936;2022-12-18T02:15:02;-8.20;99.90
47961;DHT22;33721;48.852;9.936;2022-12-18T02:17:39;-8.10;99.90
47961;DHT22;33721;48.852;9.936;2022-12-18T02:20:18;-8.00;99.90
47961;DHT22;33721;48.852;9.936;2022-12-18T02:25:51;-7.90;99.90
47961;DHT22;33721;48.852;9.936;2022-12-18T02:28:20;-8.00;99.90
47961;DHT22;33721;48.852;9.936;2022-12-18T02:30:50;-8.00;99.90
47961;DHT22;33721;48.852;9.936;2022-12-18T02:33:18;-8.00;99.90
47961;DHT22;33721;48.852;9.936;2022-12-18T02:35:45;-8.00;99.90
47961;DHT22;33721;48.852;9.936;2022-12-18T02:38:12;-8.10;99.90
47961;DHT22;33721;48.852;9.936;2022-12-18T02:40:39;-8.00;99.90
47961;DHT22;33721;48.852;9.936;2022-12-18T02:43:13;-8.00;99.90
47961;DHT22;33721;48.852;9.936;2022-12-18T02:45:57;-8.00;99.90
47961;DHT22;33721;48.852;9.936;2022-12-18T02:48:31;-8.00;99.90
47961;DHT22;33721;48.852;9.936;2022-12-18T02:53:53;-7.90;99.90
47961;DHT22;33721;48.852;9.936;2022-12-18T02:56:39;-7.90;99.90
47961;DHT22;33721;48.852;9.936;2022-12-18T02:59:17;-7.90;99.90
47961;DHT22;33721;48.852;9.936;2022-12-18T03:01:54;-8.00;99.90
47961;DHT22;33721;48.852;9.936;2022-12-18T03:07:07;-7.90;99.90
47961;DHT22;33721;48.852;9.936;2022-12-18T03:09:38;-7.90;99.90
47961;DHT22;33721;48.852;9.936;2022-12-18T03:12:17;-7.90;99.90
47961;DHT22;33721;48.852;9.936;2022-12-18T03:15:04;-8.00;99.90
47961;DHT22;33721;48.852;9.936;2022-12-18T03:17:34;-8.00;99.90
47961;DHT22;33721;48.852;9.936;2022-12-18T03:20:08;-8.00;99.90
47961;DHT22;33721;48.852;9.936;2022-12-18T03:22:37;-8.00;99.90
47961;DHT22;33721;48.852;9.936;2022-12-18T03:25:07;-8.10;99.90
47961;DHT22;33721;48.852;9.936;2022-12-18T03:27:36;-8.00;99.90
47961;DHT22;33721;48.852;9.936;2022-12-18T03:30:04;-8.00;99.90
47961;DHT22;33721;48.852;9.936;2022-12-18T03:32:42;-8.00;99.90
47961;DHT22;33721;48.852;9.936;2022-12-18T03:35:10;-8.00;99.90
47961;DHT22;33721;48.852;9.936;2022-12-18T03:37:37;-8.00;99.90
47961;DHT22;33721;48.852;9.936;2022-12-18T03:40:04;-8.00;99.90
47961;DHT22;33721;48.852;9.936;2022-12-18T03:42:45;-8.10;99.90
47961;DHT22;33721;48.852;9.936;2022-12-18T03:45:33;-8.10;99.90
47961;DHT22;33721;48.852;9.936;2022-12-18T03:48:14;-8.00;99.90
47961;DHT22;33721;48.852;9.936;2022-12-18T03:50:57;-8.00;99.90
47961;DHT22;33721;48.852;9.936;2022-12-18T03:53:48;-8.00;99.90
47961;DHT22;33721;48.852;9.936;2022-12-18T03:56:16;-7.90;99.90
47961;DHT22;33721;48.852;9.936;2022-12-18T03:58:43;-7.90;99.90
47961;DHT22;33721;48.852;9.936;2022-12-18T04:01:12;-7.90;99.90
47961;DHT22;33721;48.852;9.936;2022-12-18T04:03:39;-7.90;99.90
47961;DHT22;33721;48.852;9.936;2022-12-18T04:06:06;-7.90;99.90
47961;DHT22;33721;48.852;9.936;2022-12-18T04:08:33;-7.90;99.90
47961;DHT22;33721;48.852;9.936;2022-12-18T04:11:00;-7.90;99.90
47961;DHT22;33721;48.852;9.936;2022-12-18T04:13:34;-7.80;99.90
47961;DHT22;33721;48.852;9.936;2022-12-18T04:16:00;-7.80;99.90
47961;DHT22;33721;48.852;9.936;2022-12-18T04:18:26;-7.70;99.90
47961;DHT22;33721;48.852;9.936;2022-12-18T04:20:52;-7.60;99.90
47961;DHT22;33721;48.852;9.936;2022-12-18T04:23:18;-7.50;99.90
47961;DHT22;33721;48.852;9.936;2022-12-18T04:25:43;-7.50;99.90
47961;DHT22;33721;48.852;9.936;2022-12-18T04:28:09;-7.50;99.90
47961;DHT22;33721;48.852;9.936;2022-12-18T04:30:35;-7.50;99.90
47961;DHT22;33721;48.852;9.936;2022-12-18T04:33:00;-7.60;99.90
47961;DHT22;33721;48.852;9.936;2022-12-18T04:35:26;-7.60;99.90
47961;DHT22;33721;48.852;9.936;2022-12-18T04:37:52;-7.50;99.90
47961;DHT22;33721;48.852;9.936;2022-12-18T04:40:17;-7.50;99.90
47961;DHT22;33721;48.852;9.936;2022-12-18T04:42:43;-7.60;99.90
47961;DHT22;33721;48.852;9.936;2022-12-18T04:45:09;-7.60;99.90
47961;DHT22;33721;48.852;9.936;2022-12-18T04:47:34;-7.60;99.90
47961;DHT22;33721;48.852;9.936;2022-12-18T04:50:00;-7.50;99.90
47961;DHT22;33721;48.852;9.936;2022-12-18T04:52:25;-7.50;99.90
47961;DHT22;33721;48.852;9.936;2022-12-18T04:54:51;-7.40;99.90
47961;DHT22;33721;48.852;9.936;2022-12-18T04:57:17;-7.40;99.90
47961;DHT22;33721;48.852;9.936;2022-12-18T04:59:45;-7.40;99.90
47961;DHT22;33721;48.852;9.936;2022-12-18T05:02:11;-7.30;99.90
47961;DHT22;33721;48.852;9.936;2022-12-18T05:04:36;-7.30;99.90
47961;DHT22;33721;48.852;9.936;2022-12-18T05:07:02;-7.20;99.90
47961;DHT22;33721;48.852;9.936;2022-12-18T05:09:28;-7.30;99.90
47961;DHT22;33721;48.852;9.936;2022-12-18T05:11:53;-7.30;99.90
47961;DHT22;33721;48.852;9.936;2022-12-18T05:14:19;-7.40;99.90
47961;DHT22;33721;48.852;9.936;2022-12-18T05:16:45;-7.50;99.90
47961;DHT22;33721;48.852;9.936;2022-12-18T05:19:10;-7.50;99.90
47961;DHT22;33721;48.852;9.936;2022-12-18T05:21:36;-7.50;99.90
47961;DHT22;33721;48.852;9.936;2022-12-18T05:24:02;-7.60;99.90
47961;DHT22;33721;48.852;9.936;2022-12-18T05:26:27;-7.60;99.90
47961;DHT22;33721;48.852;9.936;2022-12-18T05:28:56;-7.70;99.90
47961;DHT22;33721;48.852;9.936;2022-12-18T05:31:22;-7.80;99.90
47961;DHT22;33721;48.852;9.936;2022-12-18T05:33:50;-7.90;99.90
47961;DHT22;33721;48.852;9.936;2022-12-18T05:36:16;-7.90;99.90
47961;DHT22;33721;48.852;9.936;2022-12-18T05:38:42;-7.90;99.90
47961;DHT22;33721;48.852;9.936;2022-12-18T05:41:08;-7.80;99.90
47961;DHT22;33721;48.852;9.936;2022-12-18T05:43:35;-7.80;99.90
47961;DHT22;33721;48.852;9.936;2022-12-18T05:46:11;-7.70;99.90
47961;DHT22;33721;48.852;9.936;2022-12-18T05:48:37;-7.70;99.90
47961;DHT22;33721;48.852;9.936;2022-12-18T05:51:07;-7.70;99.90
47961;DHT22;33721;48.852;9.936;2022-12-18T05:53:34;-7.80;99.90
47961;DHT22;33721;48.852;9.936;2022-12-18T05:56:05;-7.70;99.90
47961;DHT22;33721;48.852;9.936;2022-12-18T05:58:31;-7.60;99.90
47961;DHT22;33721;48.852;9.936;2022-12-18T06:00:57;-7.60;99.90
47961;DHT22;33721;48.852;9.936;2022-12-18T06:03:23;-7.60;99.90
47961;DHT22;33721;48.852;9.936;2022-12-18T06:05:49;-7.60;99.90
47961;DHT22;33721;48.852;9.936;2022-12-18T06:08:15;-7.60;99.90
47961;DHT22;33721;48.852;9.936;2022-12-18T06:10:41;-7.60;99.90
47961;DHT22;33721;48.852;9.936;2022-12-18T06:13:07;-7.80;99.90
47961;DHT22;33721;48.852;9.936;2022-12-18T06:15:36;-8.00;99.90
47961;DHT22;33721;48.852;9.936;2022-12-18T06:18:02;-8.20;99.90
47961;DHT22;33721;48.852;9.936;2022-12-18T06:20:31;-8.10;99.90
47961;DHT22;33721;48.852;9.936;2022-12-18T06:22:57;-8.10;99.90
47961;DHT22;33721;48.852;9.936;2022-12-18T06:25:22;-8.20;99.90
47961;DHT22;33721;48.852;9.936;2022-12-18T06:27:48;-8.30;99.90
47961;DHT22;33721;48.852;9.936;2022-12-18T06:30:14;-8.30;99.90
47961;DHT22;33721;48.852;9.936;2022-12-18T06:32:39;-8.30;99.90
47961;DHT22;33721;48.852;9.936;2022-12-18T06:35:06;-8.30;99.90
47961;DHT22;33721;48.852;9.936;2022-12-18T06:37:34;-8.40;99.90
47961;DHT22;33721;48.852;9.936;2022-12-18T06:40:00;-8.40;99.90
47961;DHT22;33721;48.852;9.936;2022-12-18T06:42:26;-8.40;99.90
47961;DHT22;33721;48.852;9.936;2022-12-18T06:44:52;-8.20;99.90
47961;DHT22;33721;48.852;9.936;2022-12-18T06:47:18;-8.10;99.90
47961;DHT22;33721;48.852;9.936;2022-12-18T06:49:44;-7.90;99.90
47961;DHT22;33721;48.852;9.936;2022-12-18T06:52:09;-7.90;99.90
47961;DHT22;33721;48.852;9.936;2022-12-18T06:54:35;-7.70;99.90
47961;DHT22;33721;48.852;9.936;2022-12-18T06:57:00;-7.60;99.90
47961;DHT22;33721;48.852;9.936;2022-12-18T06:59:26;-7.50;99.90
47961;DHT22;33721;48.852;9.936;2022-12-18T07:01:52;-7.40;99.90
47961;DHT22;33721;48.852;9.936;2022-12-18T07:04:17;-7.40;99.90
47961;DHT22;33721;48.852;9.936;2022-12-18T07:06:43;-7.40;99.90
47961;DHT22;33721;48.852;9.936;2022-12-18T07:09:08;-7.30;99.90
47961;DHT22;33721;48.852;9.936;2022-12-18T07:11:34;-7.30;99.90
47961;DHT22;33721;48.852;9.936;2022-12-18T07:14:00;-7.40;99.90
47961;DHT22;33721;48.852;9.936;2022-12-18T07:16:26;-7.40;99.90
47961;DHT22;33721;48.852;9.936;2022-12-18T07:18:54;-7.40;99.90
47961;DHT22;33721;48.852;9.936;2022-12-18T07:21:20;-7.30;99.90
47961;DHT22;33721;48.852;9.936;2022-12-18T07:23:46;-7.20;99.90
47961;DHT22;33721;48.852;9.936;2022-12-18T07:26:15;-7.10;99.90
47961;DHT22;33721;48.852;9.936;2022-12-18T07:28:41;-7.10;99.90
47961;DHT22;33721;48.852;9.936;2022-12-18T07:31:09;-7.10;99.90
47961;DHT22;33721;48.852;9.936;2022-12-18T07:33:35;-7.10;99.90
47961;DHT22;33721;48.852;9.936;2022-12-18T07:36:03;-7.10;99.90
47961;DHT22;33721;48.852;9.936;2022-12-18T07:38:30;-7.00;99.90
47961;DHT22;33721;48.852;9.936;2022-12-18T07:41:01;-7.00;99.90
47961;DHT22;33721;48.852;9.936;2022-12-18T07:43:27;-7.00;99.90
47961;DHT22;33721;48.852;9.936;2022-12-18T07:45:52;-7.00;99.90
47961;DHT22;33721;48.852;9.936;2022-12-18T07:48:18;-7.00;99.90
47961;DHT22;33721;48.852;9.936;2022-12-18T07:50:43;-7.00;99.90
47961;DHT22;33721;48.852;9.936;2022-12-18T07:53:09;-7.00;99.90
47961;DHT22;33721;48.852;9.936;2022-12-18T07:55:35;-7.00;99.90
47961;DHT22;33721;48.852;9.936;2022-12-18T07:58:02;-7.00;99.90
47961;DHT22;33721;48.852;9.936;2022-12-18T08:00:28;-6.90;99.90
47961;DHT22;33721;48.852;9.936;2022-12-18T08:02:53;-6.90;99.90
47961;DHT22;33721;48.852;9.936;2022-12-18T08:05:19;-6.90;99.90
47961;DHT22;33721;48.852;9.936;2022-12-18T08:07:46;-6.80;99.90
47961;DHT22;33721;48.852;9.936;2022-12-18T08:10:12;-6.70;99.90
47961;DHT22;33721;48.852;9.936;2022-12-18T08:12:37;-6.60;99.90
47961;DHT22;33721;48.852;9.936;2022-12-18T08:15:03;-6.60;99.90
47961;DHT22;33721;48.852;9.936;2022-12-18T08:17:29;-6.50;99.90
47961;DHT22;33721;48.852;9.936;2022-12-18T08:19:55;-6.50;99.90
47961;DHT22;33721;48.852;9.936;2022-12-18T08:22:20;-6.40;99.90
47961;DHT22;33721;48.852;9.936;2022-12-18T08:24:46;-6.40;99.90
47961;DHT22;33721;48.852;9.936;2022-12-18T08:27:12;-6.30;99.90
47961;DHT22;33721;48.852;9.936;2022-12-18T08:29:37;-6.30;99.90
47961;DHT22;33721;48.852;9.936;2022-12-18T08:32:03;-6.30;99.90
47961;DHT22;33721;48.852;9.936;2022-12-18T08:34:29;-6.30;99.90
47961;DHT22;33721;48.852;9.936;2022-12-18T08:36:55;-6.20;99.90
47961;DHT22;33721;48.852;9.936;2022-12-18T08:39:20;-6.10;99.90
47961;DHT22;33721;48.852;9.936;2022-12-18T08:41:46;-6.00;99.90
47961;DHT22;33721;48.852;9.936;2022-12-18T08:44:31;-6.00;99.90
47961;DHT22;33721;48.852;9.936;2022-12-18T08:47:03;-5.90;99.90
47961;DHT22;33721;48.852;9.936;2022-12-18T08:49:29;-5.80;99.90
47961;DHT22;33721;48.852;9.936;2022-12-18T08:51:56;-5.70;99.90
47961;DHT22;33721;48.852;9.936;2022-12-18T08:54:23;-5.60;99.90
47961;DHT22;33721;48.852;9.936;2022-12-18T08:56:48;-5.60;99.90
47961;DHT22;33721;48.852;9.936;2022-12-18T08:59:15;-5.60;99.90
47961;DHT22;33721;48.852;9.936;2022-12-18T09:01:42;-5.60;99.90
47961;DHT22;33721;48.852;9.936;2022-12-18T09:04:11;-5.50;99.90
47961;DHT22;33721;48.852;9.936;2022-12-18T09:06:37;-5.40;99.90
47961;DHT22;33721;48.852;9.936;2022-12-18T09:09:04;-5.20;99.90
47961;DHT22;33721;48.852;9.936;2022-12-18T09:11:33;-5.10;99.90
47961;DHT22;33721;48.852;9.936;2022-12-18T09:14:00;-4.90;99.90
47961;DHT22;33721;48.852;9.936;2022-12-18T09:16:28;-4.80;99.90
47961;DHT22;33721;48.852;9.936;2022-12-18T09:18:57;-4.90;99.90
47961;DHT22;33721;48.852;9.936;2022-12-18T09:21:34;-4.80;99.90
47961;DHT22;33721;48.852;9.936;2022-12-18T09:24:00;-4.80;99.90
47961;DHT22;33721;48.852;9.936;2022-12-18T09:26:26;-4.70;99.90
47961;DHT22;33721;48.852;9.936;2022-12-18T09:28:52;-4.70;99.90
47961;DHT22;33721;48.852;9.936;2022-12-18T09:31:20;-4.70;99.90
47961;DHT22;33721;48.852;9.936;2022-12-18T09:33:46;-4.60;99.90
47961;DHT22;33721;48.852;9.936;2022-12-18T09:36:14;-4.40;99.90
47961;DHT22;33721;48.852;9.936;2022-12-18T09:38:40;-4.30;99.90
47961;DHT22;33721;48.852;9.936;2022-12-18T09:46:45;-4.10;99.90
47961;DHT22;33721;48.852;9.936;2022-12-18T09:49:23;-4.00;99.90
47961;DHT22;33721;48.852;9.936;2022-12-18T09:51:59;-3.80;99.90
47961;DHT22;33721;48.852;9.936;2022-12-18T09:54:38;-3.60;99.90
47961;DHT22;33721;48.852;9.936;2022-12-18T09:57:04;-3.50;99.90
47961;DHT22;33721;48.852;9.936;2022-12-18T09:59:36;-3.50;99.90
47961;DHT22;33721;48.852;9.936;2022-12-18T10:02:29;-3.60;99.90
47961;DHT22;33721;48.852;9.936;2022-12-18T10:05:12;-3.40;99.90
47961;DHT22;33721;48.852;9.936;2022-12-18T10:10:26;-3.40;99.90
47961;DHT22;33721;48.852;9.936;2022-12-18T10:15:44;-3.40;99.90
47961;DHT22;33721;48.852;9.936;2022-12-18T10:20:58;-3.10;99.90
47961;DHT22;33721;48.852;9.936;2022-12-18T10:26:14;-2.90;99.90
47961;DHT22;33721;48.852;9.936;2022-12-18T10:28:41;-2.80;99.90
47961;DHT22;33721;48.852;9.936;2022-12-18T10:31:16;-2.90;99.90
47961;DHT22;33721;48.852;9.936;2022-12-18T10:33:42;-2.90;99.90
47961;DHT22;33721;48.852;9.936;2022-12-18T10:36:08;-2.80;99.90
47961;DHT22;33721;48.852;9.936;2022-12-18T10:38:35;-2.70;99.90
47961;DHT22;33721;48.852;9.936;2022-12-18T10:41:03;-2.70;99.90
47961;DHT22;33721;48.852;9.936;2022-12-18T10:43:30;-2.70;99.90
47961;DHT22;33721;48.852;9.936;2022-12-18T10:51:26;-2.60;99.90
47961;DHT22;33721;48.852;9.936;2022-12-18T10:53:59;-2.70;99.90
47961;DHT22;33721;48.852;9.936;2022-12-18T10:56:27;-2.70;99.90
47961;DHT22;33721;48.852;9.936;2022-12-18T10:59:05;-2.50;99.90
47961;DHT22;33721;48.852;9.936;2022-12-18T11:04:22;-2.50;99.90
47961;DHT22;33721;48.852;9.936;2022-12-18T11:07:07;-2.40;99.90
47961;DHT22;33721;48.852;9.936;2022-12-18T11:09:35;-2.30;99.90
47961;DHT22;33721;48.852;9.936;2022-12-18T11:14:43;-2.10;99.90
47961;DHT22;33721;48.852;9.936;2022-12-18T11:20:06;-1.80;99.90
47961;DHT22;33721;48.852;9.936;2022-12-18T11:22:40;-1.90;99.90
47961;DHT22;33721;48.852;9.936;2022-12-18T11:25:18;-1.80;99.90
47961;DHT22;33721;48.852;9.936;2022-12-18T11:27:56;-1.90;99.90
47961;DHT22;33721;48.852;9.936;2022-12-18T11:30:34;-1.70;99.90
47961;DHT22;33721;48.852;9.936;2022-12-18T11:33:15;-1.40;99.90
47961;DHT22;33721;48.852;9.936;2022-12-18T11:35:58;-1.50;99.90
47961;DHT22;33721;48.852;9.936;2022-12-18T11:38:33;-1.50;99.90
47961;DHT22;33721;48.852;9.936;2022-12-18T11:41:33;-1.70;99.90
47961;DHT22;33721;48.852;9.936;2022-12-18T11:44:38;-1.60;99.90
47961;DHT22;33721;48.852;9.936;2022-12-18T11:50:01;-1.50;99.90
47961;DHT22;33721;48.852;9.936;2022-12-18T11:52:35;-1.80;99.90
47961;DHT22;33721;48.852;9.936;2022-12-18T11:55:11;-1.80;99.90
47961;DHT22;33721;48.852;9.936;2022-12-18T12:00:40;-1.90;99.90
47961;DHT22;33721;48.852;9.936;2022-12-18T12:16:29;-1.70;99.90
47961;DHT22;33721;48.852;9.936;2022-12-18T12:21:50;-1.80;99.90
47961;DHT22;33721;48.852;9.936;2022-12-18T12:27:22;-1.60;99.90
47961;DHT22;33721;48.852;9.936;2022-12-18T12:30:00;-1.40;99.90
47961;DHT22;33721;48.852;9.936;2022-12-18T12:40:23;-1.30;99.90
47961;DHT22;33721;48.852;9.936;2022-12-18T12:42:55;-1.10;99.90
47961;DHT22;33721;48.852;9.936;2022-12-18T12:46:07;-1.10;99.90
47961;DHT22;33721;48.852;9.936;2022-12-18T12:48:46;-1.10;99.90
47961;DHT22;33721;48.852;9.936;2022-12-18T12:51:17;-1.10;99.90
47961;DHT22;33721;48.852;9.936;2022-12-18T12:53:44;-1.20;99.90
47961;DHT22;33721;48.852;9.936;2022-12-18T12:56:13;-1.20;99.90
47961;DHT22;33721;48.852;9.936;2022-12-18T12:59:02;-1.20;99.90
47961;DHT22;33721;48.852;9.936;2022-12-18T13:01:46;-1.30;99.90
47961;DHT22;33721;48.852;9.936;2022-12-18T13:04:38;-1.60;99.90
47961;DHT22;33721;48.852;9.936;2022-12-18T13:07:37;-1.70;99.90
47961;DHT22;33721;48.852;9.936;2022-12-18T13:13:03;-1.70;99.90
47961;DHT22;33721;48.852;9.936;2022-12-18T13:15:31;-1.80;99.90
47961;DHT22;33721;48.852;9.936;2022-12-18T13:28:16;-1.70;99.90
47961;DHT22;33721;48.852;9.936;2022-12-18T13:41:02;-1.90;99.90
47961;DHT22;33721;48.852;9.936;2022-12-18T13:46:06;-2.20;99.90
47961;DHT22;33721;48.852;9.936;2022-12-18T13:48:53;-2.20;99.90
47961;DHT22;33721;48.852;9.936;2022-12-18T13:51:20;-2.30;99.90
47961;DHT22;33721;48.852;9.936;2022-12-18T13:53:58;-2.50;99.90
47961;DHT22;33721;48.852;9.936;2022-12-18T13:56:26;-2.50;99.90
47961;DHT22;33721;48.852;9.936;2022-12-18T13:59:20;-2.60;99.90
47961;DHT22;33721;48.852;9.936;2022-12-18T14:01:53;-2.80;99.90
47961;DHT22;33721;48.852;9.936;2022-12-18T14:04:46;-2.80;99.90
47961;DHT22;33721;48.852;9.936;2022-12-18T14:07:24;-2.80;99.90
47961;DHT22;33721;48.852;9.936;2022-12-18T14:09:58;-2.90;99.90
47961;DHT22;33721;48.852;9.936;2022-12-18T14:12:28;-2.90;99.90
47961;DHT22;33721;48.852;9.936;2022-12-18T14:15:40;-2.90;99.90
47961;DHT22;33721;48.852;9.936;2022-12-18T14:20:45;-2.80;99.90
47961;DHT22;33721;48.852;9.936;2022-12-18T14:23:37;-2.80;99.90
47961;DHT22;33721;48.852;9.936;2022-12-18T14:28:48;-2.90;99.90
47961;DHT22;33721;48.852;9.936;2022-12-18T14:31:23;-2.90;99.90
47961;DHT22;33721;48.852;9.936;2022-12-18T14:33:50;-2.90;99.90
47961;DHT22;33721;48.852;9.936;2022-12-18T14:36:24;-2.90;99.90
47961;DHT22;33721;48.852;9.936;2022-12-18T14:38:54;-3.00;99.90
47961;DHT22;33721;48.852;9.936;2022-12-18T14:41:21;-3.00;99.90
47961;DHT22;33721;48.852;9.936;2022-12-18T14:43:49;-3.00;99.90
47961;DHT22;33721;48.852;9.936;2022-12-18T14:48:50;-3.30;99.90
47961;DHT22;33721;48.852;9.936;2022-12-18T14:51:19;-3.40;99.90
47961;DHT22;33721;48.852;9.936;2022-12-18T14:53:59;-3.40;99.90
47961;DHT22;33721;48.852;9.936;2022-12-18T14:56:27;-3.40;99.90
47961;DHT22;33721;48.852;9.936;2022-12-18T14:59:03;-3.40;99.90
47961;DHT22;33721;48.852;9.936;2022-12-18T15:01:45;-3.50;99.90
47961;DHT22;33721;48.852;9.936;2022-12-18T15:04:31;-3.60;99.90
47961;DHT22;33721;48.852;9.936;2022-12-18T15:07:22;-3.60;99.90
47961;DHT22;33721;48.852;9.936;2022-12-18T15:10:24;-3.60;99.90
47961;DHT22;33721;48.852;9.936;2022-12-18T15:18:11;-3.70;99.90
47961;DHT22;33721;48.852;9.936;2022-12-18T15:20:49;-3.80;99.90
47961;DHT22;33721;48.852;9.936;2022-12-18T15:25:58;-3.80;99.90
47961;DHT22;33721;48.852;9.936;2022-12-18T15:28:37;-3.80;99.90
47961;DHT22;33721;48.852;9.936;2022-12-18T15:36:19;-3.90;99.90
47961;DHT22;33721;48.852;9.936;2022-12-18T15:38:48;-4.00;99.90
47961;DHT22;33721;48.852;9.936;2022-12-18T15:41:16;-4.00;99.90
47961;DHT22;33721;48.852;9.936;2022-12-18T15:43:42;-4.00;99.90
47961;DHT22;33721;48.852;9.936;2022-12-18T15:46:22;-4.10;99.90
47961;DHT22;33721;48.852;9.936;2022-12-18T15:48:53;-4.10;99.90
47961;DHT22;33721;48.852;9.936;2022-12-18T15:51:24;-4.10;99.90
47961;DHT22;33721;48.852;9.936;2022-12-18T15:53:54;-4.10;99.90
47961;DHT22;33721;48.852;9.936;2022-12-18T15:56:20;-4.10;99.90
47961;DHT22;33721;48.852;9.936;2022-12-18T15:59:17;-4.10;99.90
47961;DHT22;33721;48.852;9.936;2022-12-18T16:01:47;-4.10;99.90
47961;DHT22;33721;48.852;9.936;2022-12-18T16:04:15;-4.10;99.90
47961;DHT22;33721;48.852;9.936;2022-12-18T16:06:42;-4.20;99.90
47961;DHT22;33721;48.852;9.936;2022-12-18T16:09:08;-4.20;99.90
47961;DHT22;33721;48.852;9.936;2022-12-18T16:11:35;-4.20;99.90
47961;DHT22;33721;48.852;9.936;2022-12-18T16:14:22;-4.20;99.90
47961;DHT22;33721;48.852;9.936;2022-12-18T16:16:54;-4.20;99.90
47961;DHT22;33721;48.852;9.936;2022-12-18T16:19:20;-4.30;99.90
47961;DHT22;33721;48.852;9.936;2022-12-18T16:21:47;-4.20;99.90
47961;DHT22;33721;48.852;9.936;2022-12-18T16:24:22;-4.30;99.90
47961;DHT22;33721;48.852;9.936;2022-12-18T16:26:49;-4.30;99.90
47961;DHT22;33721;48.852;9.936;2022-12-18T16:29:17;-4.30;99.90
47961;DHT22;33721;48.852;9.936;2022-12-18T16:31:42;-4.40;99.90
47961;DHT22;33721;48.852;9.936;2022-12-18T16:34:19;-4.50;99.90
47961;DHT22;33721;48.852;9.936;2022-12-18T16:36:49;-4.50;99.90
47961;DHT22;33721;48.852;9.936;2022-12-18T16:39:16;-4.50;99.90
47961;DHT22;33721;48.852;9.936;2022-12-18T16:41:42;-4.40;99.90
47961;DHT22;33721;48.852;9.936;2022-12-18T16:44:07;-4.40;99.90
47961;DHT22;33721;48.852;9.936;2022-12-18T16:46:33;-4.50;99.90
47961;DHT22;33721;48.852;9.936;2022-12-18T16:48:59;-4.40;99.90
47961;DHT22;33721;48.852;9.936;2022-12-18T16:51:27;-4.40;99.90
47961;DHT22;33721;48.852;9.936;2022-12-18T16:53:56;-4.40;99.90
47961;DHT22;33721;48.852;9.936;2022-12-18T16:56:25;-4.40;99.90
47961;DHT22;33721;48.852;9.936;2022-12-18T16:58:52;-4.40;99.90
47961;DHT22;33721;48.852;9.936;2022-12-18T17:01:18;-4.50;99.90
47961;DHT22;33721;48.852;9.936;2022-12-18T17:03:44;-4.40;99.90
47961;DHT22;33721;48.852;9.936;2022-12-18T17:06:09;-4.40;99.90
47961;DHT22;33721;48.852;9.936;2022-12-18T17:08:35;-4.40;99.90
47961;DHT22;33721;48.852;9.936;2022-12-18T17:11:06;-4.40;99.90
47961;DHT22;33721;48.852;9.936;2022-12-18T17:13:31;-4.40;99.90
47961;DHT22;33721;48.852;9.936;2022-12-18T17:16:02;-4.40;99.90
47961;DHT22;33721;48.852;9.936;2022-12-18T17:18:28;-4.30;99.90
47961;DHT22;33721;48.852;9.936;2022-12-18T17:20:59;-4.30;99.90
47961;DHT22;33721;48.852;9.936;2022-12-18T17:23:25;-4.40;99.90
47961;DHT22;33721;48.852;9.936;2022-12-18T17:25:54;-4.30;99.90
47961;DHT22;33721;48.852;9.936;2022-12-18T17:28:23;-4.30;99.90
47961;DHT22;33721;48.852;9.936;2022-12-18T17:30:50;-4.40;99.90
47961;DHT22;33721;48.852;9.936;2022-12-18T17:33:16;-4.40;99.90
47961;DHT22;33721;48.852;9.936;2022-12-18T17:35:42;-4.40;99.90
47961;DHT22;33721;48.852;9.936;2022-12-18T17:38:08;-4.40;99.90
47961;DHT22;33721;48.852;9.936;2022-12-18T17:40:34;-4.40;99.90
47961;DHT22;33721;48.852;9.936;2022-12-18T17:43:00;-4.40;99.90
47961;DHT22;33721;48.852;9.936;2022-12-18T17:45:25;-4.30;99.90
47961;DHT22;33721;48.852;9.936;2022-12-18T17:47:51;-4.30;99.90
47961;DHT22;33721;48.852;9.936;2022-12-18T17:50:17;-4.30;99.90
47961;DHT22;33721;48.852;9.936;2022-12-18T17:52:42;-4.20;99.90